createdAt,value
2023-05-14T00:00:28.018Z,9.80
2023-05-14T00:01:28.360Z,9.50
2023-05-14T00:02:28.109Z,10.20
2023-05-14T00:03:28.204Z,9.70
2023-05-14T00:04:28.054Z,9.70
2023-05-14T00:05:28.443Z,9.50
2023-05-14T00:06:28.037Z,10.10
2023-05-14T00:07:28.043Z,9.80
2023-05-14T00:08:28.181Z,9.80
2023-05-14T00:09:28.028Z,9.20
2023-05-14T00:10:28.508Z,9.80
2023-05-14T00:11:28.162Z,9.80
2023-05-14T00:12:28.070Z,10.00
2023-05-14T00:13:28.582Z,9.80
2023-05-14T00:14:28.178Z,10.00
2023-05-14T00:15:28.218Z,10.30
2023-05-14T00:16:28.264Z,11.00
2023-05-14T00:17:28.029Z,9.80
2023-05-14T00:18:28.225Z,9.30
2023-05-14T00:19:28.332Z,9.20
2023-05-14T00:20:28.410Z,9.30
2023-05-14T00:21:28.469Z,9.50
2023-05-14T00:22:28.491Z,9.90
2023-05-14T00:23:28.373Z,9.30
2023-05-14T00:24:28.893Z,9.60
2023-05-14T00:25:27.967Z,9.80
2023-05-14T00:26:28.904Z,9.70
2023-05-14T00:27:27.860Z,9.70
2023-05-14T00:28:28.388Z,10.20
2023-05-14T00:29:28.390Z,9.80
2023-05-14T00:30:28.052Z,9.80
2023-05-14T00:31:27.963Z,10.00
2023-05-14T00:32:28.124Z,10.10
2023-05-14T00:33:28.978Z,10.00
2023-05-14T00:34:27.861Z,9.40
2023-05-14T00:35:28.520Z,9.90
2023-05-14T00:36:27.784Z,9.80
2023-05-14T00:37:28.452Z,10.40
2023-05-14T00:38:28.282Z,9.50
2023-05-14T00:39:27.814Z,9.80
2023-05-14T00:40:27.835Z,10.20
2023-05-14T00:41:27.741Z,9.80
2023-05-14T00:42:27.744Z,10.10
2023-05-14T00:43:27.732Z,9.80
2023-05-14T00:44:27.771Z,10.10
2023-05-14T00:45:27.869Z,9.80
2023-05-14T00:46:27.749Z,9.70
2023-05-14T00:47:27.865Z,10.10
2023-05-14T00:48:27.768Z,10.00
2023-05-14T00:49:27.797Z,10.40
2023-05-14T00:50:27.873Z,11.00
2023-05-14T00:51:27.920Z,10.50
2023-05-14T00:52:27.702Z,10.80
2023-05-14T00:53:28.073Z,10.90
2023-05-14T00:54:28.153Z,10.40
2023-05-14T00:55:27.914Z,10.50
2023-05-14T00:56:27.649Z,10.30
2023-05-14T00:57:28.333Z,10.90
2023-05-14T00:58:28.369Z,10.70
2023-05-14T00:59:28.458Z,11.30
2023-05-14T01:00:28.004Z,10.90
2023-05-14T01:01:28.247Z,10.20
2023-05-14T01:02:27.949Z,10.90
2023-05-14T01:03:28.723Z,10.10
2023-05-14T01:04:27.604Z,9.90
2023-05-14T01:05:27.641Z,10.60
2023-05-14T01:06:27.859Z,10.00
2023-05-14T01:07:28.004Z,10.80
2023-05-14T01:08:28.115Z,10.70
2023-05-14T01:09:27.584Z,10.50
2023-05-14T01:10:28.238Z,10.50
2023-05-14T01:11:28.356Z,10.50
2023-05-14T01:12:28.513Z,10.30
2023-05-14T01:13:28.046Z,10.50
2023-05-14T01:14:27.678Z,10.70
2023-05-14T01:15:28.202Z,10.90
2023-05-14T01:16:27.672Z,10.40
2023-05-14T01:17:27.549Z,10.50
2023-05-14T01:18:27.615Z,10.60
2023-05-14T01:19:27.672Z,10.40
2023-05-14T01:20:27.707Z,10.90
2023-05-14T01:21:27.743Z,10.60
2023-05-14T01:22:27.835Z,10.80
2023-05-14T01:23:27.498Z,10.40
2023-05-14T01:24:27.626Z,10.30
2023-05-14T01:25:28.014Z,9.60
2023-05-14T01:26:28.090Z,10.20
2023-05-14T01:27:28.162Z,10.30
2023-05-14T01:28:27.560Z,10.60
2023-05-14T01:29:27.587Z,10.30
2023-05-14T01:30:28.374Z,10.30
2023-05-14T01:31:27.408Z,10.30
2023-05-14T01:32:27.700Z,10.40
2023-05-14T01:33:27.565Z,11.00
2023-05-14T01:34:27.419Z,10.70
2023-05-14T01:35:27.485Z,10.50
2023-05-14T01:36:27.541Z,10.60
2023-05-14T01:37:27.370Z,10.70
2023-05-14T01:38:27.640Z,11.00
2023-05-14T01:39:27.690Z,10.00
2023-05-14T01:40:27.740Z,10.30
2023-05-14T01:41:27.337Z,10.20
2023-05-14T01:42:27.566Z,10.70
2023-05-14T01:43:27.489Z,11.00
2023-05-14T01:44:27.328Z,10.90
2023-05-14T01:45:27.384Z,10.10
2023-05-14T01:46:27.476Z,10.40
2023-05-14T01:47:27.518Z,11.20
2023-05-14T01:48:27.577Z,10.50
2023-05-14T01:49:27.650Z,10.90
2023-05-14T01:50:27.269Z,10.50
2023-05-14T01:51:27.354Z,10.10
2023-05-14T01:52:27.265Z,10.70
2023-05-14T01:53:27.898Z,11.10
2023-05-14T01:54:27.936Z,10.40
2023-05-14T01:55:27.464Z,11.00
2023-05-14T01:56:27.291Z,10.80
2023-05-14T01:57:27.280Z,11.20
2023-05-14T01:58:27.747Z,10.90
2023-05-14T01:59:27.350Z,10.40
2023-05-14T02:00:27.929Z,10.80
2023-05-14T02:01:27.296Z,9.90
2023-05-14T02:02:27.327Z,9.80
2023-05-14T02:03:27.964Z,10.10
2023-05-14T02:04:27.682Z,10.60
2023-05-14T02:05:27.921Z,10.40
2023-05-14T02:06:28.184Z,10.40
2023-05-14T02:07:28.085Z,10.40
2023-05-14T02:08:27.238Z,10.30
2023-05-14T02:09:27.741Z,9.20
2023-05-14T02:10:28.058Z,10.20
2023-05-14T02:11:27.956Z,10.00
2023-05-14T02:12:28.017Z,10.00
2023-05-14T02:13:27.094Z,9.70
2023-05-14T02:14:27.122Z,10.30
2023-05-14T02:15:27.163Z,10.30
2023-05-14T02:16:27.282Z,9.40
2023-05-14T02:17:27.317Z,9.70
2023-05-14T02:18:27.339Z,9.90
2023-05-14T02:19:27.384Z,9.30
2023-05-14T02:20:27.061Z,10.20
2023-05-14T02:21:27.054Z,9.90
2023-05-14T02:22:27.045Z,10.20
2023-05-14T02:23:37.829Z,10.00
2023-05-14T02:24:27.067Z,10.10
2023-05-14T02:25:27.038Z,10.30
2023-05-14T02:26:27.085Z,10.70
2023-05-14T02:27:27.054Z,10.10
2023-05-14T02:28:27.127Z,10.50
2023-05-14T02:29:27.146Z,10.20
2023-05-14T02:30:27.131Z,9.60
2023-05-14T02:31:27.090Z,9.60
2023-05-14T02:32:27.219Z,9.30
2023-05-14T02:33:27.158Z,9.20
2023-05-14T02:34:27.136Z,9.30
2023-05-14T02:35:27.168Z,9.50
2023-05-14T02:36:27.164Z,9.90
2023-05-14T02:37:26.951Z,9.20
2023-05-14T02:38:27.194Z,9.40
2023-05-14T02:39:26.935Z,10.50
2023-05-14T02:40:27.207Z,9.80
2023-05-14T02:41:27.220Z,10.10
2023-05-14T02:42:26.990Z,10.00
2023-05-14T02:43:27.237Z,9.90
2023-05-14T02:44:27.003Z,10.30
2023-05-14T02:45:27.006Z,10.20
2023-05-14T02:46:27.027Z,10.30
2023-05-14T02:47:26.946Z,10.20
2023-05-14T02:48:27.059Z,10.20
2023-05-14T02:49:27.022Z,10.30
2023-05-14T02:50:26.974Z,9.70
2023-05-14T02:51:27.218Z,10.00
2023-05-14T02:52:26.869Z,10.40
2023-05-14T02:53:26.844Z,10.50
2023-05-14T02:54:27.357Z,10.50
2023-05-14T02:55:27.374Z,10.30
2023-05-14T02:56:27.183Z,9.80
2023-05-14T02:57:27.407Z,9.90
2023-05-14T02:58:28.458Z,9.70
2023-05-14T02:59:27.422Z,9.30
2023-05-14T03:00:27.178Z,9.60
2023-05-14T03:01:27.392Z,9.50
2023-05-14T03:02:27.211Z,9.50
2023-05-14T03:03:27.505Z,9.90
2023-05-14T03:04:27.480Z,10.10
2023-05-14T03:05:26.776Z,9.90
2023-05-14T03:06:27.488Z,10.70
2023-05-14T03:07:26.801Z,9.70
2023-05-14T03:08:27.232Z,10.10
2023-05-14T03:09:27.522Z,9.50
2023-05-14T03:10:27.374Z,9.60
2023-05-14T03:11:27.497Z,9.10
2023-05-14T03:12:26.770Z,9.50
2023-05-14T03:13:26.730Z,9.40
2023-05-14T03:14:26.833Z,9.60
2023-05-14T03:15:26.833Z,9.40
2023-05-14T03:16:26.938Z,9.70
2023-05-14T03:17:26.973Z,9.20
2023-05-14T03:18:27.015Z,10.00
2023-05-14T03:19:26.723Z,9.60
2023-05-14T03:20:26.798Z,9.70
2023-05-14T03:21:26.669Z,8.90
2023-05-14T03:22:26.723Z,9.10
2023-05-14T03:23:26.686Z,9.70
2023-05-14T03:24:26.827Z,9.60
2023-05-14T03:25:26.858Z,9.40
2023-05-14T03:26:26.920Z,9.50
2023-05-14T03:27:26.958Z,9.10
2023-05-14T03:28:26.877Z,9.30
2023-05-14T03:29:27.046Z,9.20
2023-05-14T03:30:27.221Z,8.60
2023-05-14T03:31:26.989Z,9.10
2023-05-14T03:32:27.259Z,8.80
2023-05-14T03:33:27.173Z,8.90
2023-05-14T03:34:26.584Z,8.80
2023-05-14T03:35:26.876Z,8.60
2023-05-14T03:36:27.114Z,8.70
2023-05-14T03:37:26.548Z,9.30
2023-05-14T03:38:26.548Z,9.20
2023-05-14T03:39:26.560Z,9.10
2023-05-14T03:40:26.639Z,9.10
2023-05-14T03:41:26.585Z,9.80
2023-05-14T03:42:26.616Z,9.20
2023-05-14T03:43:26.519Z,9.10
2023-05-14T03:44:26.532Z,9.40
2023-05-14T03:45:26.597Z,9.20
2023-05-14T03:46:26.670Z,8.90
2023-05-14T03:47:26.727Z,9.20
2023-05-14T03:48:26.771Z,9.20
2023-05-14T03:49:26.700Z,9.40
2023-05-14T03:50:26.727Z,8.60
2023-05-14T03:51:26.511Z,9.30
2023-05-14T03:52:26.500Z,9.00
2023-05-14T03:53:26.461Z,9.00
2023-05-14T03:54:26.741Z,9.00
2023-05-14T03:55:26.773Z,9.70
2023-05-14T03:56:27.942Z,9.70
2023-05-14T03:57:26.799Z,9.80
2023-05-14T03:58:26.550Z,9.30
2023-05-14T03:59:26.706Z,9.50
2023-05-14T04:00:27.478Z,9.60
2023-05-14T04:01:26.788Z,9.30
2023-05-14T04:02:27.966Z,9.90
2023-05-14T04:03:26.433Z,9.20
2023-05-14T04:04:26.453Z,9.70
2023-05-14T04:05:26.381Z,9.30
2023-05-14T04:06:26.440Z,9.20
2023-05-14T04:07:26.487Z,9.70
2023-05-14T04:08:26.412Z,9.90
2023-05-14T04:09:26.330Z,10.30
2023-05-14T04:10:26.433Z,10.40
2023-05-14T04:11:26.346Z,10.30
2023-05-14T04:12:26.353Z,9.30
2023-05-14T04:13:26.350Z,9.70
2023-05-14T04:14:26.307Z,9.60
2023-05-14T04:15:26.372Z,9.40
2023-05-14T04:16:26.466Z,9.40
2023-05-14T04:17:26.485Z,9.50
2023-05-14T04:18:26.622Z,10.20
2023-05-14T04:19:26.274Z,9.80
2023-05-14T04:20:26.626Z,9.70
2023-05-14T04:21:26.268Z,10.00
2023-05-14T04:22:26.274Z,9.60
2023-05-14T04:23:26.287Z,9.50
2023-05-14T04:24:26.304Z,9.80
2023-05-14T04:25:26.312Z,9.40
2023-05-14T04:26:26.246Z,9.10
2023-05-14T04:27:26.239Z,9.10
2023-05-14T04:28:26.246Z,9.10
2023-05-14T04:29:26.381Z,9.20
2023-05-14T04:30:26.425Z,9.10
2023-05-14T04:31:26.414Z,9.00
2023-05-14T04:32:26.424Z,8.90
2023-05-14T04:33:26.255Z,9.30
2023-05-14T04:34:26.445Z,9.60
2023-05-14T04:35:26.445Z,9.50
2023-05-14T04:36:26.233Z,9.80
2023-05-14T04:37:26.493Z,9.20
2023-05-14T04:38:26.138Z,9.80
2023-05-14T04:39:26.133Z,9.80
2023-05-14T04:40:26.462Z,9.70
2023-05-14T04:41:26.231Z,9.20
2023-05-14T04:42:26.271Z,9.80
2023-05-14T04:43:26.116Z,9.50
2023-05-14T04:44:26.277Z,9.30
2023-05-14T04:45:26.439Z,9.10
2023-05-14T04:46:26.517Z,9.20
2023-05-14T04:47:26.598Z,8.80
2023-05-14T04:48:26.640Z,9.20
2023-05-14T04:49:26.184Z,9.10
2023-05-14T04:50:26.646Z,8.50
2023-05-14T04:51:26.646Z,8.50
2023-05-14T04:52:26.672Z,9.00
2023-05-14T04:53:26.675Z,8.70
2023-05-14T04:54:26.824Z,9.70
2023-05-14T04:55:26.708Z,8.40
2023-05-14T04:56:26.154Z,9.00
2023-05-14T04:57:26.263Z,8.90
2023-05-14T04:58:26.147Z,8.70
2023-05-14T04:59:26.765Z,8.90
2023-05-14T05:00:26.741Z,8.10
2023-05-14T05:01:26.028Z,7.80
2023-05-14T05:02:26.142Z,8.10
2023-05-14T05:03:26.602Z,8.20
2023-05-14T05:04:26.827Z,8.10
2023-05-14T05:05:26.107Z,8.00
2023-05-14T05:06:25.976Z,7.50
2023-05-14T05:07:26.017Z,7.70
2023-05-14T05:08:26.063Z,7.70
2023-05-14T05:09:26.114Z,7.80
2023-05-14T05:10:26.226Z,7.50
2023-05-14T05:11:25.955Z,7.40
2023-05-14T05:12:25.979Z,7.40
2023-05-14T05:13:26.024Z,7.60
2023-05-14T05:14:26.083Z,7.10
2023-05-14T05:15:26.654Z,7.40
2023-05-14T05:16:26.165Z,6.70
2023-05-14T05:17:26.260Z,7.40
2023-05-14T05:18:26.372Z,7.10
2023-05-14T05:19:35.851Z,7.20
2023-05-14T05:20:26.430Z,7.20
2023-05-14T05:21:26.470Z,7.20
2023-05-14T05:22:26.554Z,6.90
2023-05-14T05:23:26.292Z,7.00
2023-05-14T05:24:26.665Z,7.20
2023-05-14T05:25:25.824Z,7.00
2023-05-14T05:26:25.836Z,7.30
2023-05-14T05:27:25.867Z,7.30
2023-05-14T05:28:25.871Z,6.80
2023-05-14T05:29:25.870Z,7.60
2023-05-14T05:30:26.058Z,7.10
2023-05-14T05:31:25.926Z,7.50
2023-05-14T05:32:25.895Z,7.30
2023-05-14T05:33:25.902Z,7.20
2023-05-14T05:34:25.888Z,7.20
2023-05-14T05:35:26.328Z,6.50
2023-05-14T05:36:26.299Z,7.10
2023-05-14T05:37:25.760Z,6.40
2023-05-14T05:38:25.754Z,6.80
2023-05-14T05:39:25.800Z,6.90
2023-05-14T05:40:25.928Z,6.30
2023-05-14T05:41:25.731Z,6.60
2023-05-14T05:42:25.728Z,6.80
2023-05-14T05:43:25.770Z,6.40
2023-05-14T05:44:25.735Z,6.70
2023-05-14T05:45:25.901Z,6.90
2023-05-14T05:46:25.826Z,6.90
2023-05-14T05:47:26.060Z,7.00
2023-05-14T05:48:26.136Z,6.80
2023-05-14T05:49:26.241Z,6.50
2023-05-14T05:50:26.118Z,6.80
2023-05-14T05:51:25.661Z,7.00
2023-05-14T05:52:25.689Z,6.50
2023-05-14T05:53:26.504Z,6.70
2023-05-14T05:54:26.045Z,7.20
2023-05-14T05:55:26.157Z,6.30
2023-05-14T05:56:25.605Z,6.70
2023-05-14T05:57:26.380Z,7.00
2023-05-14T05:58:25.621Z,6.60
2023-05-14T05:59:25.640Z,7.20
2023-05-14T06:00:25.979Z,6.70
2023-05-14T06:01:25.691Z,6.70
2023-05-14T06:02:25.825Z,6.80
2023-05-14T06:03:25.704Z,7.00
2023-05-14T06:04:25.857Z,7.10
2023-05-14T06:05:25.736Z,6.50
2023-05-14T06:06:25.951Z,6.60
2023-05-14T06:07:25.703Z,6.70
2023-05-14T06:08:25.557Z,6.80
2023-05-14T06:09:25.564Z,6.90
2023-05-14T06:10:25.789Z,6.40
2023-05-14T06:11:25.682Z,6.60
2023-05-14T06:12:25.815Z,6.60
2023-05-14T06:13:25.806Z,6.60
2023-05-14T06:14:25.857Z,6.80
2023-05-14T06:15:25.912Z,6.70
2023-05-14T06:16:25.996Z,7.00
2023-05-14T06:17:25.693Z,6.30
2023-05-14T06:18:25.940Z,6.50
2023-05-14T06:19:26.134Z,6.60
2023-05-14T06:20:26.503Z,6.30
2023-05-14T06:21:26.142Z,6.50
2023-05-14T06:22:25.758Z,6.60
2023-05-14T06:23:25.443Z,6.50
2023-05-14T06:24:25.506Z,6.50
2023-05-14T06:25:26.166Z,6.80
2023-05-14T06:26:26.206Z,7.00
2023-05-14T06:27:25.519Z,6.50
2023-05-14T06:28:25.417Z,6.30
2023-05-14T06:29:25.421Z,6.60
2023-05-14T06:30:25.749Z,6.60
2023-05-14T06:31:25.468Z,6.90
2023-05-14T06:32:26.210Z,6.70
2023-05-14T06:33:25.437Z,6.80
2023-05-14T06:34:25.446Z,6.70
2023-05-14T06:35:25.449Z,6.80
2023-05-14T06:36:25.458Z,7.10
2023-05-14T06:37:25.389Z,6.70
2023-05-14T06:38:25.345Z,7.20
2023-05-14T06:39:25.366Z,6.40
2023-05-14T06:40:25.574Z,6.50
2023-05-14T06:41:25.413Z,6.20
2023-05-14T06:42:25.312Z,6.80
2023-05-14T06:43:25.301Z,6.90
2023-05-14T06:44:25.450Z,7.10
2023-05-14T06:45:25.314Z,7.30
2023-05-14T06:46:25.473Z,6.90
2023-05-14T06:47:25.361Z,7.00
2023-05-14T06:48:25.569Z,7.20
2023-05-14T06:49:25.496Z,6.80
2023-05-14T06:50:25.765Z,7.60
2023-05-14T06:51:25.285Z,7.30
2023-05-14T06:52:25.236Z,7.40
2023-05-14T06:53:25.243Z,7.40
2023-05-14T06:54:25.285Z,7.40
2023-05-14T06:55:25.245Z,8.00
2023-05-14T06:56:25.252Z,7.90
2023-05-14T06:57:25.256Z,7.90
2023-05-14T06:58:25.208Z,8.00
2023-05-14T06:59:25.201Z,8.20
2023-05-14T07:00:25.676Z,8.70
2023-05-14T07:01:25.344Z,8.20
2023-05-14T07:02:25.252Z,8.30
2023-05-14T07:03:25.334Z,8.40
2023-05-14T07:04:25.370Z,8.80
2023-05-14T07:05:25.233Z,8.30
2023-05-14T07:06:25.248Z,8.10
2023-05-14T07:07:25.392Z,8.30
2023-05-14T07:08:25.121Z,8.00
2023-05-14T07:09:25.478Z,7.90
2023-05-14T07:10:25.639Z,8.20
2023-05-14T07:11:25.120Z,8.20
2023-05-14T07:12:25.132Z,8.20
2023-05-14T07:13:27.641Z,8.10
2023-05-14T07:14:25.116Z,8.20
2023-05-14T07:15:25.142Z,8.10
2023-05-14T07:16:25.166Z,7.90
2023-05-14T07:17:25.354Z,8.10
2023-05-14T07:18:25.392Z,7.60
2023-05-14T07:19:25.426Z,7.50
2023-05-14T07:20:25.645Z,7.50
2023-05-14T07:21:25.553Z,7.70
2023-05-14T07:22:25.029Z,7.40
2023-05-14T07:23:25.601Z,7.60
2023-05-14T07:24:25.585Z,7.70
2023-05-14T07:25:25.587Z,7.30
2023-05-14T07:26:25.587Z,7.00
2023-05-14T07:27:25.618Z,7.20
2023-05-14T07:28:25.609Z,7.00
2023-05-14T07:29:25.203Z,7.10
2023-05-14T07:30:25.846Z,8.20
2023-05-14T07:31:25.608Z,7.50
2023-05-14T07:32:25.498Z,8.20
2023-05-14T07:33:25.011Z,8.70
2023-05-14T07:34:25.026Z,7.90
2023-05-14T07:35:25.230Z,8.00
2023-05-14T07:36:24.976Z,7.90
2023-05-14T07:37:24.930Z,7.40
2023-05-14T07:38:25.048Z,7.70
2023-05-14T07:39:24.984Z,7.40
2023-05-14T07:40:25.519Z,7.90
2023-05-14T07:41:25.073Z,7.30
2023-05-14T07:42:35.303Z,7.10
2023-05-14T07:43:25.225Z,7.20
2023-05-14T07:44:25.307Z,7.00
2023-05-14T07:45:24.913Z,6.70
2023-05-14T07:46:24.926Z,7.40
2023-05-14T07:47:25.002Z,6.50
2023-05-14T07:48:24.931Z,6.90
2023-05-14T07:49:24.853Z,6.90
2023-05-14T07:50:25.241Z,6.80
2023-05-14T07:51:24.928Z,7.00
2023-05-14T07:52:25.044Z,6.60
2023-05-14T07:53:24.942Z,6.70
2023-05-14T07:54:24.962Z,6.80
2023-05-14T07:55:24.953Z,6.90
2023-05-14T07:56:25.011Z,7.20
2023-05-14T07:57:24.825Z,6.30
2023-05-14T07:58:24.983Z,6.50
2023-05-14T07:59:24.981Z,6.00
2023-05-14T08:00:25.254Z,6.60
2023-05-14T08:01:24.827Z,6.70
2023-05-14T08:02:24.842Z,6.60
2023-05-14T08:03:25.220Z,6.20
2023-05-14T08:04:25.146Z,6.50
2023-05-14T08:05:25.080Z,6.30
2023-05-14T08:06:24.757Z,7.00
2023-05-14T08:07:24.714Z,6.50
2023-05-14T08:08:24.764Z,6.60
2023-05-14T08:09:24.700Z,6.30
2023-05-14T08:10:25.024Z,6.80
2023-05-14T08:11:24.711Z,6.40
2023-05-14T08:12:24.694Z,6.10
2023-05-14T08:13:24.713Z,6.00
2023-05-14T08:14:24.989Z,5.80
2023-05-14T08:15:27.549Z,5.70
2023-05-14T08:16:25.168Z,5.50
2023-05-14T08:17:24.922Z,4.90
2023-05-14T08:18:25.242Z,5.50
2023-05-14T08:19:25.290Z,5.60
2023-05-14T08:20:25.868Z,5.90
2023-05-14T08:21:24.790Z,6.00
2023-05-14T08:22:25.487Z,5.90
2023-05-14T08:23:24.623Z,5.30
2023-05-14T08:24:24.741Z,5.30
2023-05-14T08:25:25.360Z,5.70
2023-05-14T08:26:24.616Z,5.50
2023-05-14T08:27:24.637Z,5.00
2023-05-14T08:28:24.572Z,5.00
2023-05-14T08:29:24.640Z,4.80
2023-05-14T08:30:24.876Z,4.80
2023-05-14T08:31:24.658Z,4.50
2023-05-14T08:32:24.658Z,4.50
2023-05-14T08:33:24.601Z,4.40
2023-05-14T08:34:24.602Z,4.10
2023-05-14T08:35:24.644Z,4.30
2023-05-14T08:36:24.602Z,4.00
2023-05-14T08:37:24.622Z,3.80
2023-05-14T08:38:24.593Z,4.10
2023-05-14T08:39:24.524Z,4.00
2023-05-14T08:40:24.709Z,3.60
2023-05-14T08:41:24.525Z,3.10
2023-05-14T08:42:24.532Z,2.90
2023-05-14T08:43:24.676Z,2.80
2023-05-14T08:44:24.547Z,2.80
2023-05-14T08:45:24.549Z,2.70
2023-05-14T08:46:24.697Z,3.00
2023-05-14T08:47:24.516Z,2.70
2023-05-14T08:48:24.575Z,2.80
2023-05-14T08:49:24.787Z,2.80
2023-05-14T08:50:25.175Z,2.70
2023-05-14T08:51:24.714Z,2.70
2023-05-14T08:52:24.806Z,2.70
2023-05-14T08:53:24.825Z,2.60
2023-05-14T08:54:24.847Z,2.60
2023-05-14T08:55:24.408Z,2.70
2023-05-14T08:56:24.620Z,2.60
2023-05-14T08:57:24.418Z,2.80
2023-05-14T08:58:24.911Z,2.90
2023-05-14T08:59:24.899Z,2.40
2023-05-14T09:00:24.869Z,2.80
2023-05-14T09:01:24.642Z,2.60
2023-05-14T09:02:24.537Z,2.50
2023-05-14T09:03:24.975Z,2.70
2023-05-14T09:04:24.967Z,2.70
2023-05-14T09:05:24.496Z,3.00
2023-05-14T09:06:24.994Z,2.50
2023-05-14T09:07:24.421Z,2.90
2023-05-14T09:08:24.323Z,2.70
2023-05-14T09:09:24.328Z,2.70
2023-05-14T09:10:24.765Z,3.00
2023-05-14T09:11:24.481Z,2.70
2023-05-14T09:12:24.557Z,2.80
2023-05-14T09:13:25.807Z,3.00
2023-05-14T09:14:24.670Z,2.90
2023-05-14T09:15:24.340Z,2.70
2023-05-14T09:16:24.849Z,2.60
2023-05-14T09:17:24.330Z,2.50
2023-05-14T09:18:24.979Z,2.50
2023-05-14T09:19:24.965Z,2.50
2023-05-14T09:20:25.535Z,2.50
2023-05-14T09:21:24.847Z,2.40
2023-05-14T09:22:24.397Z,2.30
2023-05-14T09:23:24.803Z,2.30
2023-05-14T09:24:24.530Z,2.40
2023-05-14T09:25:25.254Z,2.40
2023-05-14T09:26:24.949Z,2.40
2023-05-14T09:27:24.551Z,2.50
2023-05-14T09:28:24.750Z,2.60
2023-05-14T09:29:24.199Z,2.50
2023-05-14T09:30:25.361Z,2.40
2023-05-14T09:31:24.175Z,2.50
2023-05-14T09:32:24.695Z,2.20
2023-05-14T09:33:24.473Z,2.30
2023-05-14T09:34:24.824Z,2.20
2023-05-14T09:35:25.027Z,2.20
2023-05-14T09:36:24.109Z,2.20
2023-05-14T09:37:24.107Z,1.90
2023-05-14T09:38:24.114Z,2.10
2023-05-14T09:39:24.188Z,2.20
2023-05-14T09:40:24.819Z,2.20
2023-05-14T09:41:24.127Z,2.10
2023-05-14T09:42:24.236Z,2.20
2023-05-14T09:43:24.098Z,2.20
2023-05-14T09:44:24.136Z,2.10
2023-05-14T09:45:24.429Z,2.00
2023-05-14T09:46:24.441Z,2.00
2023-05-14T09:47:24.575Z,1.90
2023-05-14T09:48:24.557Z,2.10
2023-05-14T09:49:24.248Z,2.30
2023-05-14T09:50:24.667Z,2.20
2023-05-14T09:51:24.009Z,2.40
2023-05-14T09:52:23.998Z,2.20
2023-05-14T09:53:24.027Z,2.10
2023-05-14T09:54:24.010Z,2.10
2023-05-14T09:55:23.997Z,2.20
2023-05-14T09:56:23.973Z,2.30
2023-05-14T09:57:23.995Z,2.10
2023-05-14T09:58:24.345Z,2.40
2023-05-14T09:59:24.029Z,2.30
2023-05-14T10:00:24.106Z,2.20
2023-05-14T10:01:24.522Z,2.20
2023-05-14T10:02:24.567Z,2.20
2023-05-14T10:03:24.029Z,2.20
2023-05-14T10:04:23.975Z,2.20
2023-05-14T10:05:23.927Z,2.20
2023-05-14T10:06:23.972Z,2.10
2023-05-14T10:07:24.037Z,2.30
2023-05-14T10:08:23.956Z,2.00
2023-05-14T10:09:23.903Z,2.20
2023-05-14T10:10:24.283Z,2.10
2023-05-14T10:11:23.945Z,2.20
2023-05-14T10:12:24.215Z,2.30
2023-05-14T10:13:24.161Z,2.20
2023-05-14T10:14:24.469Z,2.30
2023-05-14T10:15:24.507Z,2.30
2023-05-14T10:16:24.447Z,2.50
2023-05-14T10:17:24.057Z,2.40
2023-05-14T10:18:24.700Z,2.40
2023-05-14T10:19:24.339Z,2.60
2023-05-14T10:20:24.399Z,2.40
2023-05-14T10:21:24.489Z,2.30
2023-05-14T10:22:23.963Z,2.60
2023-05-14T10:23:24.821Z,2.40
2023-05-14T10:24:24.281Z,2.30
2023-05-14T10:25:24.097Z,2.40
2023-05-14T10:26:24.357Z,2.20
2023-05-14T10:27:24.633Z,2.30
2023-05-14T10:28:23.965Z,2.30
2023-05-14T10:29:24.269Z,2.30
2023-05-14T10:30:24.427Z,2.10
2023-05-14T10:31:24.118Z,2.30
2023-05-14T10:32:23.885Z,2.10
2023-05-14T10:33:23.806Z,2.20
2023-05-14T10:34:23.804Z,2.70
2023-05-14T10:35:23.933Z,2.30
2023-05-14T10:36:23.739Z,2.50
2023-05-14T10:37:23.744Z,2.20
2023-05-14T10:38:23.839Z,2.30
2023-05-14T10:39:23.855Z,2.30
2023-05-14T10:40:24.284Z,2.40
2023-05-14T10:41:23.986Z,2.50
2023-05-14T10:42:23.988Z,2.30
2023-05-14T10:43:23.986Z,2.30
2023-05-14T10:44:24.089Z,2.00
2023-05-14T10:45:24.112Z,2.20
2023-05-14T10:46:23.830Z,2.40
2023-05-14T10:47:23.821Z,2.20
2023-05-14T10:48:23.776Z,2.20
2023-05-14T10:49:36.187Z,2.20
2023-05-14T10:50:24.116Z,2.20
2023-05-14T10:51:23.767Z,2.10
2023-05-14T10:52:23.843Z,2.30
2023-05-14T10:53:23.739Z,2.30
2023-05-14T10:54:23.751Z,2.30
2023-05-14T10:55:23.668Z,2.40
2023-05-14T10:56:23.555Z,2.40
2023-05-14T10:57:23.766Z,2.30
2023-05-14T10:58:23.763Z,2.20
2023-05-14T10:59:23.775Z,2.10
2023-05-14T11:00:24.044Z,2.30
2023-05-14T11:01:23.552Z,2.10
2023-05-14T11:02:23.568Z,2.00
2023-05-14T11:03:23.691Z,2.40
2023-05-14T11:04:23.706Z,2.20
2023-05-14T11:05:23.661Z,2.40
2023-05-14T11:06:23.558Z,2.20
2023-05-14T11:07:23.604Z,2.00
2023-05-14T11:08:26.476Z,2.10
2023-05-14T11:09:23.854Z,2.20
2023-05-14T11:10:24.195Z,2.10
2023-05-14T11:11:23.496Z,2.10
2023-05-14T11:12:23.661Z,2.30
2023-05-14T11:13:23.617Z,2.30
2023-05-14T11:14:23.742Z,2.20
2023-05-14T11:15:23.938Z,2.30
2023-05-14T11:16:24.137Z,2.20
2023-05-14T11:17:23.449Z,2.20
2023-05-14T11:18:23.976Z,2.20
2023-05-14T11:19:23.984Z,2.20
2023-05-14T11:20:23.866Z,2.10
2023-05-14T11:21:23.562Z,2.20
2023-05-14T11:22:23.465Z,2.20
2023-05-14T11:23:23.818Z,2.40
2023-05-14T11:24:23.396Z,2.00
2023-05-14T11:25:23.396Z,2.00
2023-05-14T11:26:23.402Z,2.10
2023-05-14T11:27:23.412Z,2.10
2023-05-14T11:28:23.405Z,2.00
2023-05-14T11:29:23.409Z,1.80
2023-05-14T11:30:23.648Z,2.20
2023-05-14T11:31:23.370Z,1.90
2023-05-14T11:32:23.487Z,2.00
2023-05-14T11:33:23.455Z,2.00
2023-05-14T11:35:49.344Z,2.00
2023-05-14T11:36:49.357Z,2.10
2023-05-14T11:37:49.389Z,2.10
2023-05-14T11:38:49.385Z,1.90
2023-05-14T11:39:49.280Z,2.00
2023-05-14T11:40:49.294Z,1.90
2023-05-14T11:41:49.278Z,2.30
2023-05-14T11:42:49.292Z,2.10
2023-05-14T11:43:49.307Z,2.00
2023-05-14T11:44:49.319Z,1.80
2023-05-14T11:45:49.354Z,1.80
2023-05-14T11:46:49.346Z,1.90
2023-05-14T11:47:49.269Z,1.80
2023-05-14T11:48:49.379Z,1.90
2023-05-14T11:49:49.241Z,1.70
2023-05-14T11:50:49.314Z,1.80
2023-05-14T11:51:49.279Z,1.90
2023-05-14T11:52:49.266Z,2.20
2023-05-14T11:53:49.227Z,1.70
2023-05-14T11:54:49.340Z,2.00
2023-05-14T11:55:49.275Z,1.90
2023-05-14T11:56:49.484Z,1.70
2023-05-14T11:57:49.253Z,1.70
2023-05-14T11:58:49.436Z,1.90
2023-05-14T11:59:49.157Z,1.80
2023-05-14T12:00:49.225Z,1.90
2023-05-14T12:01:50.672Z,1.80
2023-05-14T12:02:49.453Z,1.70
2023-05-14T12:03:49.482Z,1.70
2023-05-14T12:04:49.246Z,1.50
2023-05-14T12:05:49.317Z,1.80
2023-05-14T12:06:49.552Z,1.80
2023-05-14T12:07:49.151Z,1.60
2023-05-14T12:08:49.132Z,1.50
2023-05-14T12:09:49.172Z,1.90
2023-05-14T12:10:49.178Z,1.70
2023-05-14T12:11:49.135Z,1.90
2023-05-14T12:12:49.280Z,1.60
2023-05-14T12:13:49.123Z,1.80
2023-05-14T12:14:49.096Z,2.00
2023-05-14T12:15:49.212Z,1.60
2023-05-14T12:16:49.066Z,1.70
2023-05-14T12:17:49.081Z,1.70
2023-05-14T12:18:49.106Z,2.30
2023-05-14T12:19:49.073Z,1.80
2023-05-14T12:20:49.188Z,1.70
2023-05-14T12:21:49.197Z,1.60
2023-05-14T12:22:49.152Z,1.80
2023-05-14T12:23:49.018Z,1.60
2023-05-14T12:24:49.080Z,1.70
2023-05-14T12:25:49.207Z,1.70
2023-05-14T12:26:49.217Z,1.80
2023-05-14T12:27:49.251Z,1.50
2023-05-14T12:28:49.198Z,1.90
2023-05-14T12:29:49.227Z,1.80
2023-05-14T12:30:49.214Z,1.80
2023-05-14T12:31:49.106Z,1.90
2023-05-14T12:32:49.202Z,1.80
2023-05-14T12:33:49.096Z,1.90
2023-05-14T12:34:49.142Z,1.90
2023-05-14T12:35:49.070Z,1.80
2023-05-14T12:36:49.098Z,1.90
2023-05-14T12:37:49.225Z,1.80
2023-05-14T12:38:49.155Z,2.00
2023-05-14T12:39:48.994Z,1.90
2023-05-14T12:40:49.231Z,1.90
2023-05-14T12:41:49.380Z,2.20
2023-05-14T12:42:49.199Z,2.10
2023-05-14T12:43:48.908Z,2.00
2023-05-14T12:44:49.405Z,1.90
2023-05-14T12:45:48.898Z,2.00
2023-05-14T12:46:49.493Z,2.00
2023-05-14T12:47:49.536Z,2.10
2023-05-14T12:48:51.129Z,1.80
2023-05-14T12:49:48.850Z,1.80
2023-05-14T12:50:48.847Z,2.00
2023-05-14T12:51:51.192Z,2.00
2023-05-14T12:52:48.872Z,2.00
2023-05-14T12:53:48.843Z,1.80
2023-05-14T12:54:48.855Z,2.00
2023-05-14T12:55:48.859Z,1.80
2023-05-14T12:56:48.873Z,1.90
2023-05-14T12:57:48.880Z,2.00
2023-05-14T12:58:48.917Z,2.00
2023-05-14T12:59:49.766Z,2.00
2023-05-14T13:00:48.845Z,2.00
2023-05-14T13:01:48.813Z,2.10
2023-05-14T13:02:49.292Z,2.00
2023-05-14T13:03:49.413Z,2.00
2023-05-14T13:04:48.839Z,1.90
2023-05-14T13:05:48.852Z,2.10
2023-05-14T13:06:49.411Z,2.00
2023-05-14T13:07:48.852Z,2.00
2023-05-14T13:08:48.863Z,1.90
2023-05-14T13:09:48.764Z,1.80
2023-05-14T13:10:48.785Z,1.80
2023-05-14T13:11:48.775Z,1.90
2023-05-14T13:12:49.396Z,2.10
2023-05-14T13:13:49.196Z,1.80
2023-05-14T13:14:49.009Z,2.10
2023-05-14T13:15:48.814Z,2.00